Ross Creek Scenic Area, Montana
Current Conditions -  °F | °C
As of 11:15 PM on Thursday 18 Dec 2014 (Local Time) from KSZT Reporting Station
Overcast Overcast  
Wind Chill: 34°   Ceiling: 3900
Heat Index: 34°   Visibility: 10mi
Dew Point: 34°   Wind: 3mph
Humidity: 100%   Direction: 10°N
Pressure: 29.96"   Gusts: NA
Location:  48.22°N, 115.85°W
Report Text: KSZT 190615Z AUTO 01003KT 10SM BKN039 OVC050 01/01 A2996 RMK AO2
Loading
Personal Weather Stations






























Interactive Weather Map New forecast layout! Learn more

10-Day Weather Forecast

Advertisements
Track Severe Weather on mobile